Time;durP1;ratioP1;P1;durP2;ratioP2;P2;SDS_P1;SDS_P2;PMS_P1;PMS_P2;Temp;Humidity;BMP_temperature;BMP_pressure;BME280_temperature;BME280_humidity;BME280_pressure;Samples;Min_cycle;Max_cycle;Signal;HPM_P1;HPM_P2
2023/01/04 00:01:42;;;;;;;4.20;1.70;;;;;;;8.44;73.05;100249.16;4975750;28;20169;-76
2023/01/04 00:04:09;;;;;;;6.72;2.17;;;;;;;8.45;72.87;100241.22;4993352;28;20451;-77
2023/01/04 00:06:36;;;;;;;8.80;1.65;;;;;;;8.47;72.78;100234.16;4992841;28;20057;-77
2023/01/04 00:09:02;;;;;;;10.35;2.25;;;;;;;8.46;72.16;100247.34;4993091;28;20065;-76
2023/01/04 00:11:29;;;;;;;7.10;1.67;;;;;;;8.48;72.65;100233.25;4992943;28;20133;-77
2023/01/04 00:13:58;;;;;;;5.15;2.10;;;;;;;8.51;72.46;100234.03;4993136;28;20050;-77
2023/01/04 00:16:26;;;;;;;4.88;1.63;;;;;;;8.52;72.48;100235.75;4992982;28;20088;-77
2023/01/04 00:18:54;;;;;;;3.85;1.45;;;;;;;8.55;73.29;100215.50;4975373;28;20500;-76
2023/01/04 00:21:24;;;;;;;7.28;1.80;;;;;;;8.57;72.54;100218.06;4992924;28;20562;-77
2023/01/04 00:23:53;;;;;;;5.28;1.88;;;;;;;8.58;72.70;100201.41;4992678;28;20046;-76
2023/01/04 00:26:26;;;;;;;5.03;1.45;;;;;;;8.59;70.28;100205.72;4975599;28;20051;-77
2023/01/04 00:28:57;;;;;;;7.23;2.13;;;;;;;8.64;71.82;100197.69;4992366;28;20073;-77
2023/01/04 00:31:25;;;;;;;2.78;1.42;;;;;;;8.68;72.83;100202.72;4992889;28;20038;-77
2023/01/04 00:33:53;;;;;;;6.97;1.65;;;;;;;8.70;72.77;100190.41;4992387;28;20058;-76
2023/01/04 00:36:20;;;;;;;5.70;1.95;;;;;;;8.73;72.64;100187.66;4992638;28;20054;-77
2023/01/04 00:39:05;;;;;;;5.85;1.85;;;;;;;8.77;72.63;100184.88;4992303;28;20050;-77
2023/01/04 00:41:37;;;;;;;7.75;1.40;;;;;;;8.77;71.27;100161.25;4992584;28;20082;-77
2023/01/04 00:44:24;;;;;;;4.90;1.33;;;;;;;8.81;72.67;100161.06;4991869;28;20042;-77
2023/01/04 00:46:51;;;;;;;5.75;1.77;;;;;;;8.88;72.53;100169.53;4991200;28;20043;-77
2023/01/04 00:49:18;;;;;;;5.03;1.80;;;;;;;8.88;72.41;100156.41;4974908;28;20054;-77
2023/01/04 00:51:44;;;;;;;5.78;1.98;;;;;;;8.88;72.21;100152.91;4992455;28;20105;-77
2023/01/04 00:54:14;;;;;;;8.15;1.77;;;;;;;8.90;71.56;100146.66;4991841;28;20498;-77
2023/01/04 00:56:41;;;;;;;6.80;1.40;;;;;;;8.94;71.87;100139.53;4991939;28;20058;-77
2023/01/04 00:59:10;;;;;;;5.45;1.58;;;;;;;8.95;71.44;100139.47;4991627;28;20105;-77
2023/01/04 01:01:38;;;;;;;5.65;1.63;;;;;;;8.99;72.08;100127.06;4992250;28;20049;-78
2023/01/04 01:04:05;;;;;;;5.10;1.50;;;;;;;9.04;72.18;100116.34;4991803;28;20064;-76
2023/01/04 01:06:33;;;;;;;4.20;1.40;;;;;;;9.05;71.98;100102.28;4991962;28;20140;-76
2023/01/04 01:09:00;;;;;;;6.15;1.58;;;;;;;9.09;72.26;100103.88;4991668;28;20058;-75
2023/01/04 01:11:27;;;;;;;4.80;1.27;;;;;;;9.10;71.59;100106.44;4991888;28;20163;-77
2023/01/04 01:13:55;;;;;;;8.48;1.80;;;;;;;9.15;72.17;100095.69;4991830;28;20056;-76
2023/01/04 01:16:23;;;;;;;7.85;1.95;;;;;;;9.19;71.87;100078.03;4991833;28;20062;-76
2023/01/04 01:19:09;;;;;;;5.10;1.30;;;;;;;9.23;71.97;100074.31;4977382;28;20050;-76
2023/01/04 01:21:36;;;;;;;5.47;1.50;;;;;;;9.26;71.99;100087.31;4991720;28;20050;-77
2023/01/04 01:24:04;;;;;;;6.68;1.52;;;;;;;9.30;71.85;100069.66;4991683;28;20050;-76
2023/01/04 01:26:31;;;;;;;5.97;1.60;;;;;;;9.34;71.40;100079.94;4991392;28;20046;-76
2023/01/04 01:28:58;;;;;;;3.47;1.45;;;;;;;9.37;71.44;100064.03;4991828;28;20054;-76
2023/01/04 01:31:27;;;;;;;5.82;1.60;;;;;;;9.38;70.95;100054.34;4991137;28;20058;-76
2023/01/04 01:33:55;;;;;;;7.18;1.85;;;;;;;9.43;70.54;100055.03;4991597;28;20065;-76
2023/01/04 01:36:24;;;;;;;5.53;1.42;;;;;;;9.47;71.06;100053.09;4991076;28;20415;-76
2023/01/04 01:38:51;;;;;;;4.40;1.55;;;;;;;9.51;71.24;100060.75;4991314;28;20157;-77
2023/01/04 01:41:24;;;;;;;7.25;1.95;;;;;;;9.51;69.91;100050.25;4973996;28;20109;-76
2023/01/04 01:43:55;;;;;;;6.65;1.58;;;;;;;9.52;70.04;100033.56;4974321;28;20145;-77
2023/01/04 01:46:26;;;;;;;7.70;1.60;;;;;;;9.52;70.08;100048.47;4990803;28;20054;-77
2023/01/04 01:48:57;;;;;;;4.38;1.55;;;;;;;9.47;69.68;100018.94;4991226;28;20162;-76
2023/01/04 01:51:25;;;;;;;8.10;1.63;;;;;;;9.46;70.85;100023.31;4991259;28;20141;-77
2023/01/04 01:53:59;;;;;;;7.53;1.77;;;;;;;9.41;70.92;100030.56;4991516;28;20060;-77
2023/01/04 01:56:29;;;;;;;6.57;1.48;;;;;;;9.34;71.14;100018.66;4990905;28;20054;-76
2023/01/04 01:58:58;;;;;;;7.35;1.50;;;;;;;9.27;71.23;100017.25;4990933;28;20046;-76
2023/01/04 02:01:26;;;;;;;5.18;1.38;;;;;;;9.21;71.87;100016.63;4990845;28;20050;-76
2023/01/04 02:03:53;;;;;;;4.30;1.48;;;;;;;9.16;72.56;100015.13;4991166;28;20108;-76
2023/01/04 02:06:29;;;;;;;4.57;1.70;;;;;;;9.07;72.10;100013.78;4990729;28;20108;-76
2023/01/04 02:08:56;;;;;;;3.92;1.48;;;;;;;9.05;72.83;100002.50;4991190;28;20475;-76
2023/01/04 02:11:22;;;;;;;6.35;2.10;;;;;;;9.00;73.08;100000.09;4990712;28;20065;-76
2023/01/04 02:17:03;;;;;;;8.77;1.50;;;;;;;8.92;73.34;100003.06;4990541;28;20153;-76
2023/01/04 02:20:06;;;;;;;10.90;1.48;;;;;;;8.85;73.07;100001.66;4991073;28;20525;-76
2023/01/04 02:22:33;;;;;;;;;;;;;;;8.88;73.11;99993.63;4991116;28;20054;-75
2023/01/04 02:25:24;;;;;;;4.63;1.63;;;;;;;8.88;73.90;99975.25;4990999;28;19922;-76
2023/01/04 02:27:57;;;;;;;6.07;1.60;;;;;;;8.83;74.32;99966.75;4990845;28;20069;-75
2023/01/04 02:31:00;;;;;;;4.70;1.33;;;;;;;8.77;74.25;99969.66;4991141;28;20149;-75
2023/01/04 02:33:41;;;;;;;8.88;1.60;;;;;;;8.78;74.73;99959.09;4990486;28;20055;-76
2023/01/04 02:36:31;;;;;;;6.28;1.67;;;;;;;8.76;74.87;99963.56;4990901;28;20050;-76
2023/01/04 02:39:18;;;;;;;5.32;1.52;;;;;;;8.73;75.19;99955.81;4990548;28;20054;-75
2023/01/04 02:41:51;;;;;;;5.40;1.65;;;;;;;8.75;75.58;99946.13;4990792;28;20479;-76
2023/01/04 02:50:29;;;;;;;13.07;1.85;;;;;;;8.72;75.96;99928.72;4990600;28;20049;-77
2023/01/04 02:50:31;;;;;;;7.35;1.65;;;;;;;8.70;76.08;99937.59;4990823;28;20072;-77
2023/01/04 02:53:10;;;;;;;;;;;;;;;8.71;76.40;99910.44;4973654;28;20061;-76
2023/01/04 02:55:50;;;;;;;4.75;1.30;;;;;;;8.71;76.46;99890.28;4990523;28;19921;-78
2023/01/04 03:07:44;;;;;;;5.20;1.77;;;;;;;8.66;77.49;99876.53;4990574;28;20471;-77
2023/01/04 03:10:19;;;;;;;5.70;1.73;;;;;;;8.71;77.52;99865.81;4990787;28;20563;-77
2023/01/04 03:13:01;;;;;;;6.60;2.00;;;;;;;8.71;77.81;99866.66;4977041;28;20047;-77
2023/01/04 03:15:33;;;;;;;6.18;1.83;;;;;;;8.76;77.82;99858.59;4994198;28;20058;-78
2023/01/04 03:18:23;;;;;;;5.60;1.80;;;;;;;8.72;77.92;99865.72;4994386;28;20061;-77
2023/01/04 03:20:52;;;;;;;6.43;2.15;;;;;;;8.76;78.36;99866.44;4994057;28;20061;-77
2023/01/04 03:43:08;;;;;;;5.25;1.90;;;;;;;8.85;79.32;99824.00;4993915;28;20050;-77
2023/01/04 03:49:56;;;;;;;6.57;2.10;;;;;;;8.96;79.77;99799.00;4993885;28;20066;-76
2023/01/04 03:52:26;;;;;;;6.25;2.05;;;;;;;9.02;79.91;99788.19;4946129;28;20046;-76
2023/01/04 03:54:56;;;;;;;7.32;2.10;;;;;;;9.05;80.15;99781.94;4993424;28;20105;-77
2023/01/04 03:57:24;;;;;;;6.55;2.30;;;;;;;9.10;80.19;99790.44;4975768;28;20058;-76
2023/01/04 03:59:56;;;;;;;6.43;2.20;;;;;;;9.10;80.38;99769.44;4976097;28;20477;-76
2023/01/04 04:02:29;;;;;;;3.00;2.28;;;;;;;9.14;80.37;99776.22;4993232;28;20050;-77
2023/01/04 04:10:26;;;;;;;3.78;1.98;;;;;;;9.28;80.30;99751.03;4993270;28;20058;-76
2023/01/04 04:12:52;;;;;;;5.68;2.42;;;;;;;9.31;80.16;99746.44;4992961;28;20054;-77
2023/01/04 04:15:19;;;;;;;6.28;2.40;;;;;;;9.34;80.25;99743.66;4993142;28;20054;-76
2023/01/04 04:17:46;;;;;;;5.47;2.60;;;;;;;9.37;80.16;99758.44;4993150;28;20053;-76
2023/01/04 04:20:12;;;;;;;5.72;2.53;;;;;;;9.39;80.20;99748.69;4975935;28;20054;-77
2023/01/04 04:22:39;;;;;;;4.35;2.50;;;;;;;9.43;80.31;99752.00;4992628;28;20047;-76
2023/01/04 04:25:06;;;;;;;4.32;2.60;;;;;;;9.46;80.22;99738.72;4992678;28;20096;-77
2023/01/04 04:27:33;;;;;;;3.97;2.55;;;;;;;9.47;80.20;99733.38;4992534;28;20072;-77
2023/01/04 04:30:01;;;;;;;4.15;2.90;;;;;;;9.48;80.39;99748.22;4992835;28;20061;-77
2023/01/04 04:32:27;;;;;;;4.40;2.80;;;;;;;9.49;80.78;99739.41;4992529;28;20089;-77
2023/01/04 04:34:54;;;;;;;3.97;2.92;;;;;;;9.55;80.51;99743.47;4992851;28;20057;-77
2023/01/04 04:37:21;;;;;;;5.18;3.03;;;;;;;9.57;80.44;99732.91;4992463;28;20038;-78
2023/01/04 04:39:47;;;;;;;4.78;3.08;;;;;;;9.60;80.66;99748.47;4975464;28;20452;-77
2023/01/04 04:42:14;;;;;;;4.75;3.13;;;;;;;9.62;80.64;99738.75;4992531;28;20058;-77
2023/01/04 04:44:40;;;;;;;5.90;3.60;;;;;;;9.64;80.74;99736.88;4992312;28;20061;-76
2023/01/04 04:47:07;;;;;;;3.38;3.08;;;;;;;9.68;80.73;99737.56;4992290;28;20061;-77
2023/01/04 04:49:33;;;;;;;3.70;3.30;;;;;;;9.67;80.88;99720.94;4992223;28;20050;-77
2023/01/04 04:52:00;;;;;;;6.85;4.03;;;;;;;9.71;80.96;99727.72;4992607;28;20096;-78
2023/01/04 04:54:26;;;;;;;5.00;4.07;;;;;;;9.75;80.99;99731.91;4992389;28;20451;-77
2023/01/04 04:56:53;;;;;;;4.45;3.50;;;;;;;9.80;81.00;99730.81;4992291;28;20141;-77
2023/01/04 04:59:20;;;;;;;5.35;4.10;;;;;;;9.82;80.82;99728.91;4974934;28;20478;-78
2023/01/04 05:01:46;;;;;;;5.53;4.18;;;;;;;9.86;80.77;99717.31;4992605;28;20523;-78
2023/01/04 05:04:15;;;;;;;4.68;3.92;;;;;;;9.87;81.07;99733.00;4991817;28;20064;-78
2023/01/04 05:06:43;;;;;;;7.15;4.35;;;;;;;9.86;81.21;99726.06;4992000;28;20042;-77
2023/01/04 05:09:13;;;;;;;5.93;4.72;;;;;;;9.90;81.40;99708.31;4991923;28;20103;-77
2023/01/04 05:14:26;;;;;;;6.50;4.93;;;;;;;9.99;81.45;99694.66;4991751;28;20086;-77
2023/01/04 05:16:53;;;;;;;6.07;5.32;;;;;;;10.00;81.73;99714.78;4992055;28;20050;-79
2023/01/04 05:19:20;;;;;;;5.57;5.05;;;;;;;10.02;82.01;99697.13;4991914;28;20361;-78
2023/01/04 05:21:47;;;;;;;5.57;5.07;;;;;;;10.07;82.00;99690.75;4992409;28;20054;-78
2023/01/04 05:24:14;;;;;;;6.65;4.53;;;;;;;10.14;81.81;99686.88;4991625;28;20104;-77
2023/01/04 05:26:40;;;;;;;8.18;4.85;;;;;;;10.17;81.75;99692.78;4974203;28;20058;-78
2023/01/04 05:30:49;;;;;;;6.35;4.30;;;;;;;10.22;81.70;99668.00;4991700;28;20125;-78
2023/01/04 05:31:53;;;;;;;5.80;4.90;;;;;;;10.24;81.57;99674.03;4991554;28;20507;-78
2023/01/04 05:34:20;;;;;;;6.38;4.82;;;;;;;10.29;81.43;99693.88;4991172;28;20058;-78
2023/01/04 05:36:48;;;;;;;7.65;5.57;;;;;;;10.29;81.34;99664.09;4991474;28;20046;-78
2023/01/04 05:39:14;;;;;;;6.35;4.85;;;;;;;10.33;81.38;99676.16;4991874;28;20423;-78
2023/01/04 05:44:26;;;;;;;7.25;4.88;;;;;;;10.35;81.37;99657.66;4991801;28;20108;-78
2023/01/04 05:46:52;;;;;;;5.97;4.78;;;;;;;10.37;81.37;99654.00;4991083;28;20058;-78
2023/01/04 05:49:19;;;;;;;5.93;5.32;;;;;;;10.38;81.47;99644.28;4991530;28;20121;-78
2023/01/04 05:51:46;;;;;;;6.38;5.78;;;;;;;10.39;81.42;99646.00;4991411;28;20047;-78
2023/01/04 05:54:12;;;;;;;6.68;6.07;;;;;;;10.37;82.04;99645.22;4991363;28;20081;-78
2023/01/04 05:56:46;;;;;;;6.75;5.32;;;;;;;10.42;81.60;99640.53;4990977;28;20052;-79
2023/01/04 05:59:13;;;;;;;7.15;5.35;;;;;;;10.45;81.78;99640.41;4991484;28;20070;-78
2023/01/04 06:01:40;;;;;;;6.20;5.70;;;;;;;10.47;81.66;99635.88;4990917;28;20363;-78
2023/01/04 06:04:07;;;;;;;7.03;6.32;;;;;;;10.48;81.72;99637.59;4991283;28;20530;-78
2023/01/04 06:06:33;;;;;;;5.70;5.15;;;;;;;10.53;81.75;99619.75;4973582;28;20051;-78
2023/01/04 06:09:00;;;;;;;6.00;5.45;;;;;;;10.56;81.66;99618.72;4991146;28;20149;-77
2023/01/04 06:11:27;;;;;;;6.13;5.63;;;;;;;10.57;81.85;99614.31;4991107;28;20407;-78
2023/01/04 06:13:53;;;;;;;5.85;5.35;;;;;;;10.60;81.81;99625.50;4991312;28;20197;-78
2023/01/04 06:16:20;;;;;;;6.22;5.72;;;;;;;10.61;81.77;99621.09;4990753;28;20519;-78
2023/01/04 06:18:46;;;;;;;6.00;5.50;;;;;;;10.65;81.58;99618.16;4973973;28;20591;-79
2023/01/04 06:21:13;;;;;;;6.28;5.68;;;;;;;10.67;81.59;99610.19;4990689;28;20050;-77
2023/01/04 06:23:39;;;;;;;6.72;6.13;;;;;;;10.67;81.69;99623.34;4991207;28;20086;-79
2023/01/04 06:26:06;;;;;;;6.47;5.88;;;;;;;10.71;81.74;99613.47;4991172;28;20081;-78
2023/01/04 06:28:32;;;;;;;6.72;6.05;;;;;;;10.71;81.94;99616.97;4990798;28;20050;-79
2023/01/04 06:31:07;;;;;;;6.38;5.20;;;;;;;10.74;81.97;99616.78;4991634;28;20108;-78
2023/01/04 06:33:34;;;;;;;9.15;5.35;;;;;;;10.79;81.78;99600.69;4991176;28;20058;-78
2023/01/04 06:36:01;;;;;;;5.82;4.50;;;;;;;10.82;81.92;99582.09;4991116;28;20137;-78
2023/01/04 06:38:28;;;;;;;5.30;4.43;;;;;;;10.81;82.06;99591.75;4990758;28;20134;-78
2023/01/04 06:40:54;;;;;;;4.75;4.35;;;;;;;10.85;81.81;99594.22;4991004;28;20065;-78
2023/01/04 06:43:21;;;;;;;4.78;4.38;;;;;;;10.89;81.94;99620.28;4990694;28;20085;-78
2023/01/04 06:45:48;;;;;;;4.72;4.32;;;;;;;10.91;82.12;99594.69;4992226;28;20078;-78
2023/01/04 06:48:15;;;;;;;4.10;3.80;;;;;;;10.95;81.85;99592.69;4994709;28;20093;-78
2023/01/04 06:50:43;;;;;;;4.30;3.90;;;;;;;10.98;81.78;99594.31;4994799;28;20054;-79
2023/01/04 06:53:10;;;;;;;3.33;3.10;;;;;;;11.01;81.77;99600.25;4994314;28;20077;-78
2023/01/04 06:55:37;;;;;;;3.65;3.45;;;;;;;11.02;81.81;99578.22;4994553;28;20050;-78
2023/01/04 06:58:04;;;;;;;6.03;3.38;;;;;;;11.07;81.98;99586.69;4994230;28;20467;-79
2023/01/04 07:00:30;;;;;;;3.50;3.20;;;;;;;11.10;81.83;99576.91;4994638;28;20050;-78
2023/01/04 07:02:57;;;;;;;2.90;2.70;;;;;;;11.14;81.98;99581.88;4994246;28;20055;-77
2023/01/04 07:05:41;;;;;;;3.22;2.90;;;;;;;11.17;81.92;99586.09;4994622;28;20516;-78
2023/01/04 07:08:08;;;;;;;3.42;2.88;;;;;;;11.21;81.65;99583.19;4994428;28;20092;-79
2023/01/04 07:10:34;;;;;;;2.35;2.15;;;;;;;11.24;81.58;99583.94;4994227;28;20052;-77
2023/01/04 07:13:01;;;;;;;2.58;2.38;;;;;;;11.27;81.62;99587.25;4994557;28;20065;-78
2023/01/04 07:15:28;;;;;;;3.00;2.20;;;;;;;11.29;81.61;99579.25;4994055;28;20058;-77
2023/01/04 07:18:05;;;;;;;2.90;1.77;;;;;;;11.31;81.93;99593.16;4978437;28;20050;-77
2023/01/04 07:20:32;;;;;;;3.58;1.90;;;;;;;11.34;81.64;99562.16;4994046;28;20058;-77
2023/01/04 07:22:58;;;;;;;4.60;1.77;;;;;;;11.36;81.44;99582.34;4994059;28;20522;-77
2023/01/04 07:25:25;;;;;;;2.78;1.50;;;;;;;11.37;81.09;99582.25;4993578;28;20048;-77
2023/01/04 07:27:52;;;;;;;3.03;1.88;;;;;;;11.38;81.04;99588.34;4993989;28;20399;-77
2023/01/04 07:30:20;;;;;;;6.88;1.52;;;;;;;11.36;81.11;99574.44;4993850;28;20046;-79
2023/01/04 07:32:48;;;;;;;2.53;1.40;;;;;;;11.37;81.13;99571.69;4994110;28;20101;-78
2023/01/04 07:35:14;;;;;;;1.85;1.70;;;;;;;11.36;81.29;99569.16;4993469;28;20057;-78
2023/01/04 07:37:42;;;;;;;4.20;1.77;;;;;;;11.32;81.19;99577.25;4993813;28;20144;-78
2023/01/04 07:40:09;;;;;;;3.83;1.92;;;;;;;11.31;81.61;99572.94;4993798;28;20404;-77
2023/01/04 07:42:37;;;;;;;3.13;1.60;;;;;;;11.28;81.77;99552.03;4993969;28;20081;-79
2023/01/04 07:45:05;;;;;;;2.97;1.60;;;;;;;11.29;81.92;99564.25;4993465;28;20051;-77
2023/01/04 07:47:32;;;;;;;1.83;1.73;;;;;;;11.29;81.95;99574.81;4993625;28;20133;-78
2023/01/04 07:49:59;;;;;;;4.75;2.28;;;;;;;11.29;82.05;99540.53;4976232;28;20468;-78
2023/01/04 07:52:26;;;;;;;2.33;1.80;;;;;;;11.30;82.13;99559.84;4993473;28;20050;-77
2023/01/04 07:54:52;;;;;;;6.57;1.95;;;;;;;11.30;82.10;99554.56;4993527;28;20495;-78
2023/01/04 07:57:19;;;;;;;3.65;1.85;;;;;;;11.28;82.39;99554.66;4975742;28;20058;-78
2023/01/04 07:59:45;;;;;;;4.35;1.83;;;;;;;11.30;82.35;99554.56;4993480;28;20100;-78
2023/01/04 08:02:12;;;;;;;2.83;1.92;;;;;;;11.33;82.50;99568.41;4993130;28;20150;-79
2023/01/04 08:04:39;;;;;;;2.10;1.90;;;;;;;11.33;82.54;99584.19;4993317;28;20112;-78
2023/01/04 08:07:05;;;;;;;2.20;1.90;;;;;;;11.33;82.82;99559.66;4993000;28;20050;-78
2023/01/04 08:09:32;;;;;;;3.88;2.25;;;;;;;11.32;82.91;99566.72;4975922;28;20452;-78
2023/01/04 08:11:59;;;;;;;3.65;1.85;;;;;;;11.34;83.02;99559.53;4992745;28;20513;-78
2023/01/04 08:14:26;;;;;;;2.50;1.92;;;;;;;11.38;82.85;99564.63;4993143;28;20054;-78
2023/01/04 08:16:52;;;;;;;3.72;2.08;;;;;;;11.38;83.11;99570.75;4992772;28;20081;-78
2023/01/04 08:19:20;;;;;;;1.98;1.85;;;;;;;11.41;82.89;99556.53;4993081;28;20092;-78
2023/01/04 08:21:47;;;;;;;2.92;1.77;;;;;;;11.43;83.31;99555.47;4993027;28;20050;-78
2023/01/04 08:24:16;;;;;;;2.40;1.80;;;;;;;11.47;83.14;99572.78;4993023;28;20414;-78
2023/01/04 08:26:44;;;;;;;1.88;1.77;;;;;;;11.51;83.26;99562.91;4992573;28;20194;-79
2023/01/04 08:29:12;;;;;;;2.55;1.85;;;;;;;11.55;83.13;99582.00;4993033;28;20140;-80
2023/01/04 08:31:39;;;;;;;2.47;1.77;;;;;;;11.58;82.99;99552.78;4975260;28;20557;-79
2023/01/04 08:34:08;;;;;;;1.90;1.80;;;;;;;11.59;83.07;99565.88;4992805;28;20143;-78
2023/01/04 08:36:46;;;;;;;1.95;1.80;;;;;;;11.64;83.05;99555.06;4975446;28;20058;-78
2023/01/04 08:39:13;;;;;;;2.05;1.70;;;;;;;11.70;82.86;99551.19;4993007;28;20054;-78
2023/01/04 08:42:01;;;;;;;1.70;1.60;;;;;;;11.73;82.76;99541.28;4992830;28;20081;-78
2023/01/04 08:44:36;;;;;;;2.35;1.95;;;;;;;11.76;82.42;99540.22;4992551;28;20050;-77
2023/01/04 08:47:03;;;;;;;5.03;1.90;;;;;;;11.75;82.37;99549.09;4992156;28;20050;-78
2023/01/04 08:49:30;;;;;;;2.25;1.67;;;;;;;11.78;82.45;99533.03;4992577;28;20046;-78
2023/01/04 08:51:56;;;;;;;4.90;2.15;;;;;;;11.79;82.31;99539.16;4992908;28;20051;-78
2023/01/04 08:54:23;;;;;;;2.72;2.00;;;;;;;11.80;82.50;99533.78;4992252;28;20089;-78
2023/01/04 08:56:49;;;;;;;1.50;1.40;;;;;;;11.83;82.27;99509.88;4992053;28;20134;-77
2023/01/04 08:59:16;;;;;;;2.22;1.73;;;;;;;11.86;82.08;99525.47;4992524;28;20058;-78
2023/01/04 09:01:42;;;;;;;2.28;1.60;;;;;;;11.86;81.77;99519.38;4998192;22;20050;-79
2023/01/04 09:04:09;;;;;;;1.50;1.40;;;;;;;11.89;81.99;99507.75;4991794;28;20057;-79
2023/01/04 09:06:37;;;;;;;2.10;1.55;;;;;;;11.90;82.04;99509.44;4991505;28;20043;-79
2023/01/04 09:09:04;;;;;;;1.50;1.40;;;;;;;11.90;81.94;99509.44;4991045;28;20050;-79
2023/01/04 09:11:30;;;;;;;3.85;1.50;;;;;;;11.90;81.86;99514.72;4991929;28;20085;-79
2023/01/04 09:13:58;;;;;;;2.17;1.48;;;;;;;11.89;81.68;99519.13;4991478;28;20046;-79
2023/01/04 09:16:34;;;;;;;1.92;1.40;;;;;;;11.91;81.84;99521.69;4991232;28;20416;-79
2023/01/04 09:19:01;;;;;;;1.33;1.23;;;;;;;11.92;81.86;99513.66;4991613;28;20053;-79
2023/01/04 09:21:27;;;;;;;2.15;1.42;;;;;;;11.90;81.94;99512.94;4974128;28;20050;-79
2023/01/04 09:23:56;;;;;;;3.63;1.52;;;;;;;11.88;81.96;99521.91;4974250;28;20062;-79
2023/01/04 09:26:23;;;;;;;1.52;1.42;;;;;;;11.89;82.07;99513.03;4991318;28;20112;-80
2023/01/04 09:28:52;;;;;;;2.63;1.60;;;;;;;11.84;82.07;99506.28;4991526;28;20050;-79
2023/01/04 09:31:22;;;;;;;1.48;1.38;;;;;;;11.86;82.24;99514.09;4991318;28;20050;-79
2023/01/04 09:33:48;;;;;;;2.42;1.90;;;;;;;11.86;82.47;99524.63;4991356;28;20108;-79
2023/01/04 09:36:35;;;;;;;2.53;1.75;;;;;;;11.86;82.43;99512.28;4990891;28;20054;-80
2023/01/04 09:39:01;;;;;;;1.73;1.63;;;;;;;11.88;82.61;99500.81;4991107;28;20046;-79
2023/01/04 09:41:42;;;;;;;4.30;1.60;;;;;;;11.87;82.33;99494.69;4991004;28;20050;-79
2023/01/04 09:44:08;;;;;;;2.10;1.90;;;;;;;11.88;82.46;99496.34;4991290;28;20050;-79
2023/01/04 09:46:40;;;;;;;3.05;1.60;;;;;;;11.86;82.62;99485.09;4973575;28;20094;-79
2023/01/04 09:49:25;;;;;;;2.30;1.90;;;;;;;11.86;82.77;99493.00;4990960;28;20452;-79
2023/01/04 09:52:21;;;;;;;10.85;1.90;;;;;;;11.85;82.62;99500.06;4990953;28;20089;-79
2023/01/04 09:54:54;;;;;;;4.22;2.30;;;;;;;11.85;82.85;99502.69;4990994;28;20128;-79
2023/01/04 09:57:35;;;;;;;2.50;2.30;;;;;;;11.88;82.99;99495.53;4990793;28;20428;-79
2023/01/04 10:00:05;;;;;;;2.30;2.10;;;;;;;11.89;83.02;99500.69;4991051;28;20096;-79
2023/01/04 10:03:02;;;;;;;3.33;2.28;;;;;;;11.86;83.31;99509.66;4991005;28;20097;-79
2023/01/04 10:05:31;;;;;;;2.20;2.10;;;;;;;11.90;83.16;99483.06;4989702;28;20057;-79
2023/01/04 10:07:57;;;;;;;2.40;2.20;;;;;;;11.92;83.44;99503.13;4990611;28;20050;-80
2023/01/04 10:10:41;;;;;;;2.20;2.00;;;;;;;11.86;83.16;99493.81;4990645;28;20501;-80
2023/01/04 10:13:21;;;;;;;2.40;2.17;;;;;;;11.91;83.19;99484.75;4973584;28;20109;-79
2023/01/04 10:16:21;;;;;;;2.13;1.88;;;;;;;11.91;83.37;99490.88;4973332;28;20511;-80
2023/01/04 10:19:27;;;;;;;1.98;1.88;;;;;;;11.93;83.22;99483.69;4991416;28;20172;-80
2023/01/04 10:22:32;;;;;;;1.83;1.73;;;;;;;11.97;83.40;99487.00;4980206;28;20060;-81
2023/01/04 10:25:13;;;;;;;3.10;1.40;;;;;;;12.02;83.51;99489.31;4995046;28;20162;-81
2023/01/04 10:28:10;;;;;;;2.85;1.45;;;;;;;11.98;83.29;99489.53;4994743;28;20089;-81
2023/01/04 10:30:55;;;;;;;0.98;0.93;;;;;;;12.01;83.44;99477.94;4977270;28;20054;-81
2023/01/04 10:33:37;;;;;;;1.45;1.20;;;;;;;12.08;83.49;99473.13;4994598;28;20464;-81
2023/01/04 10:36:15;;;;;;;1.67;1.10;;;;;;;12.04;83.49;99479.50;4994632;28;20050;-82
2023/01/04 10:38:42;;;;;;;2.00;0.93;;;;;;;12.10;83.63;99476.47;4994616;28;20051;-82
2023/01/04 10:41:17;;;;;;;1.95;1.10;;;;;;;12.07;83.50;99477.53;4994495;28;20401;-82
2023/01/04 10:44:01;;;;;;;1.45;1.10;;;;;;;12.07;83.51;99469.63;4995126;28;20194;-83
2023/01/04 10:46:51;;;;;;;1.13;1.02;;;;;;;12.12;83.46;99464.03;4978535;28;20509;-82
2023/01/04 10:49:27;;;;;;;2.03;1.10;;;;;;;12.13;83.99;99484.19;4994425;28;20057;-82
2023/01/04 10:52:19;;;;;;;1.92;1.13;;;;;;;12.15;83.73;99470.91;4994328;28;20059;-82
2023/01/04 10:55:03;;;;;;;1.70;0.90;;;;;;;12.18;83.77;99460.97;4994430;28;20054;-82
2023/01/04 10:57:45;;;;;;;1.00;0.90;;;;;;;12.24;83.91;99465.84;4994214;28;20496;-82
2023/01/04 11:00:22;;;;;;;0.87;0.87;;;;;;;12.25;83.78;99477.22;4993915;28;20588;-82
2023/01/04 11:02:59;;;;;;;2.10;1.10;;;;;;;12.27;83.64;99454.22;4994253;28;20408;-82
2023/01/04 11:05:39;;;;;;;11.63;2.55;;;;;;;12.35;83.77;99451.91;4993908;28;20636;-82
2023/01/04 11:08:15;;;;;;;1.08;0.98;;;;;;;12.35;83.58;99475.66;4976648;28;20433;-82
2023/01/04 11:10:51;;;;;;;1.38;1.00;;;;;;;12.37;83.58;99449.13;4994020;28;20054;-82
2023/01/04 11:13:18;;;;;;;2.28;1.27;;;;;;;12.42;83.77;99451.47;4976525;28;20502;-82
2023/01/04 11:15:46;;;;;;;2.00;1.00;;;;;;;12.44;83.90;99445.13;4993824;28;20054;-82
2023/01/04 11:18:15;;;;;;;1.05;1.00;;;;;;;12.45;83.90;99444.16;4976399;28;20042;-82
2023/01/04 11:20:41;;;;;;;1.95;1.20;;;;;;;12.49;84.17;99452.72;4993635;28;20066;-82
2023/01/04 11:23:13;;;;;;;1.48;1.13;;;;;;;12.48;83.54;99456.31;4976662;28;20051;-82
2023/01/04 11:25:51;;;;;;;2.75;1.20;;;;;;;12.51;83.55;99429.69;4993486;28;20060;-82
2023/01/04 11:28:28;;;;;;;2.72;1.23;;;;;;;12.51;83.66;99425.28;4976669;28;20551;-81
2023/01/04 11:31:02;;;;;;;1.83;1.15;;;;;;;12.55;83.69;99439.09;4992788;28;20138;-81
2023/01/04 11:33:29;;;;;;;1.05;0.98;;;;;;;12.58;83.79;99424.81;4976377;28;20523;-81
2023/01/04 11:35:57;;;;;;;4.05;1.30;;;;;;;12.59;83.71;99421.22;4976188;28;20058;-81
2023/01/04 11:38:29;;;;;;;2.53;1.30;;;;;;;12.58;83.57;99414.25;4975834;28;20394;-81
2023/01/04 11:41:00;;;;;;;2.22;1.13;;;;;;;12.60;83.67;99415.84;4975882;28;20054;-82
2023/01/04 11:43:29;;;;;;;1.88;1.20;;;;;;;12.63;83.73;99426.19;4993598;28;20084;-81
2023/01/04 11:45:57;;;;;;;3.05;1.13;;;;;;;12.67;83.49;99408.31;4975920;28;20070;-81
2023/01/04 11:48:51;;;;;;;1.42;1.30;;;;;;;12.64;83.20;99408.56;4992980;28;20061;-81
2023/01/04 11:51:19;;;;;;;;;;;;;;;12.68;82.99;99402.09;4991352;28;20055;-81
2023/01/04 11:53:56;;;;;;;0.85;0.80;;;;;;;12.71;82.97;99406.31;4993214;28;19925;-82
2023/01/04 11:56:25;;;;;;;1.63;1.02;;;;;;;12.75;83.35;99415.72;4993073;28;20054;-81
2023/01/04 11:59:12;;;;;;;0.80;0.80;;;;;;;12.71;82.88;99408.97;4992875;28;20051;-81
2023/01/04 12:01:50;;;;;;;2.35;1.13;;;;;;;12.73;83.38;99378.84;4977056;28;20096;-81
2023/01/04 12:04:25;;;;;;;0.98;0.85;;;;;;;12.74;83.00;99382.31;4993051;28;20058;-81
2023/01/04 12:06:58;;;;;;;2.33;0.75;;;;;;;12.77;82.89;99400.59;4992706;28;20075;-81
2023/01/04 12:09:25;;;;;;;1.63;0.90;;;;;;;12.80;83.27;99383.69;4975629;28;20050;-82
2023/01/04 12:11:55;;;;;;;0.70;0.70;;;;;;;12.81;83.45;99383.56;4992949;28;20050;-82
2023/01/04 12:14:31;;;;;;;1.50;0.82;;;;;;;12.79;83.14;99363.50;4993025;28;20054;-81
2023/01/04 12:17:22;;;;;;;0.73;0.73;;;;;;;12.81;82.89;99385.34;4975403;28;20054;-81
2023/01/04 12:19:53;;;;;;;1.85;0.90;;;;;;;12.82;83.12;99379.97;4975322;28;20097;-81
2023/01/04 12:22:39;;;;;;;0.70;0.70;;;;;;;12.82;82.94;99365.94;4975442;28;20116;-81
2023/01/04 12:25:29;;;;;;;2.15;0.77;;;;;;;12.82;82.87;99369.41;4992537;28;20054;-81
2023/01/04 12:27:55;;;;;;;1.13;0.73;;;;;;;12.87;83.39;99353.22;4992204;28;20065;-81
2023/01/04 12:30:43;;;;;;;0.98;0.70;;;;;;;12.84;82.82;99350.81;4992525;28;20050;-81
2023/01/04 12:33:28;;;;;;;1.02;0.68;;;;;;;12.88;82.86;99353.13;4992654;28;20054;-82
2023/01/04 12:36:14;;;;;;;2.13;0.98;;;;;;;12.88;82.79;99347.84;4992317;28;20046;-81
2023/01/04 12:38:53;;;;;;;2.60;0.80;;;;;;;12.89;82.92;99338.09;4992159;28;20136;-82
2023/01/04 12:41:21;;;;;;;3.10;0.77;;;;;;;12.90;83.27;99340.63;4992263;28;20051;-81
2023/01/04 12:43:48;;;;;;;0.77;0.60;;;;;;;12.94;83.35;99345.69;4991117;28;20105;-82
2023/01/04 12:49:24;;;;;;;1.55;0.80;;;;;;;12.93;83.02;99342.19;4992283;28;20101;-82
2023/01/04 12:52:06;;;;;;;2.17;0.90;;;;;;;12.93;82.83;99328.16;4992213;28;20065;-81